Time;durP1;ratioP1;P1;durP2;ratioP2;P2;SDS_P1;SDS_P2;PMS_P1;PMS_P2;Temp;Humidity;BMP_temperature;BMP_pressure;BME280_temperature;BME280_humidity;BME280_pressure;Samples;Min_cycle;Max_cycle;Signal;HPM_P1;HPM_P2
2023/06/02 00:00:39;;;;;;;1.7;0.8;;;;;;;;;;;;;-70
2023/06/02 00:01:18;;;;;;;;;;;;;;;12.7;54.125;102402.6;;;;-69
2023/06/02 00:06:18;;;;;;;;;;;;;;;12.67;54.21094;102399;;;;-70
2023/06/02 00:11:19;;;;;;;;;;;;;;;12.62;54.12695;102394.2;;;;-71
2023/06/02 00:16:19;;;;;;;;;;;;;;;12.61;54.21484;102393.1;;;;-68
2023/06/02 00:21:18;;;;;;;;;;;;;;;12.58;54.16602;102390.5;;;;-68
2023/06/02 00:26:18;;;;;;;;;;;;;;;12.54;54.39746;102387.8;;;;-69
2023/06/02 00:30:32;;;;;;;0.2;0.1;;;;;;;;;;;;;-69
2023/06/02 00:31:17;;;;;;;;;;;;;;;12.53;54.2168;102385.7;;;;-69
2023/06/02 00:36:17;;;;;;;;;;;;;;;12.52;54.33789;102383.6;;;;-68
2023/06/02 00:41:17;;;;;;;;;;;;;;;12.49;54.2002;102386.3;;;;-70
2023/06/02 00:46:17;;;;;;;;;;;;;;;12.48;54.24316;102383.2;;;;-69
2023/06/02 00:51:17;;;;;;;;;;;;;;;12.44;54.2168;102383.4;;;;-69
2023/06/02 00:56:20;;;;;;;;;;;;;;;12.42;54.32617;102382.9;;;;-72
2023/06/02 01:00:38;;;;;;;0.2;0.1;;;;;;;;;;;;;-69
2023/06/02 01:01:18;;;;;;;;;;;;;;;12.43;54.36035;102381.9;;;;-70
2023/06/02 01:06:22;;;;;;;;;;;;;;;12.4;54.28906;102381.4;;;;-71
2023/06/02 01:11:20;;;;;;;;;;;;;;;12.38;54.48828;102378.5;;;;-70
2023/06/02 01:16:19;;;;;;;;;;;;;;;12.37;54.28613;102379.6;;;;-68
2023/06/02 01:21:21;;;;;;;;;;;;;;;12.34;54.5957;102382.9;;;;-70
2023/06/02 01:26:17;;;;;;;;;;;;;;;12.34;54.5498;102381.6;;;;-70
2023/06/02 01:30:35;;;;;;;0.2;0.1;;;;;;;;;;;;;-71
2023/06/02 01:31:20;;;;;;;;;;;;;;;12.33;54.45898;102381.4;;;;-69
2023/06/02 01:36:17;;;;;;;;;;;;;;;12.3;54.35547;102379.8;;;;-70
2023/06/02 01:41:20;;;;;;;;;;;;;;;12.29;54.62402;102382.5;;;;-70
2023/06/02 01:46:17;;;;;;;;;;;;;;;12.26;54.39551;102383.4;;;;-69
2023/06/02 01:51:17;;;;;;;;;;;;;;;12.28;54.4873;102385.4;;;;-70
2023/06/02 01:56:17;;;;;;;;;;;;;;;12.24;54.31348;102384.3;;;;-71
2023/06/02 02:00:36;;;;;;;0.2;0.1;;;;;;;;;;;;;-71
2023/06/02 02:01:17;;;;;;;;;;;;;;;12.22;54.47949;102384;;;;-70
2023/06/02 02:06:19;;;;;;;;;;;;;;;12.21;54.63477;102380.2;;;;-71
2023/06/02 02:11:17;;;;;;;;;;;;;;;12.18;54.58691;102379.5;;;;-69
2023/06/02 02:16:20;;;;;;;;;;;;;;;12.16;54.875;102378.7;;;;-70
2023/06/02 02:21:17;;;;;;;;;;;;;;;12.12;54.73535;102377;;;;-70
2023/06/02 02:26:18;;;;;;;;;;;;;;;12.09;54.73242;102374.8;;;;-70
2023/06/02 02:30:39;;;;;;;0.2;0.1;;;;;;;;;;;;;-70
2023/06/02 02:31:17;;;;;;;;;;;;;;;12.1;54.67773;102381.4;;;;-68
2023/06/02 02:36:17;;;;;;;;;;;;;;;12.11;54.5332;102379.5;;;;-69
2023/06/02 02:41:17;;;;;;;;;;;;;;;12.08;54.57324;102377.7;;;;-69
2023/06/02 02:46:17;;;;;;;;;;;;;;;12.08;54.39551;102377.6;;;;-68
2023/06/02 02:51:17;;;;;;;;;;;;;;;12.05;54.4248;102370.2;;;;-70
2023/06/02 02:56:18;;;;;;;;;;;;;;;12.04;54.56934;102365.6;;;;-69
2023/06/02 03:00:39;;;;;;;0.2;0.1;;;;;;;;;;;;;-68
2023/06/02 03:01:17;;;;;;;;;;;;;;;12.02;54.54395;102371.1;;;;-69
2023/06/02 03:06:18;;;;;;;;;;;;;;;12;54.64258;102372.3;;;;-69
2023/06/02 03:11:17;;;;;;;;;;;;;;;11.99;54.51855;102377;;;;-70
2023/06/02 03:16:28;;;;;;;;;;;;;;;;;;;;;
2023/06/02 03:21:17;;;;;;;;;;;;;;;11.96;54.53613;102369.5;;;;-68
2023/06/02 03:26:25;;;;;;;;;;;;;;;11.97;54.60547;102369;;;;-70
2023/06/02 03:30:41;;;;;;;0.2;0.1;;;;;;;;;;;;;-68
2023/06/02 03:31:17;;;;;;;;;;;;;;;11.96;54.76074;102370.4;;;;-70
2023/06/02 03:36:19;;;;;;;;;;;;;;;11.93;54.72363;102362.8;;;;-71
2023/06/02 03:41:17;;;;;;;;;;;;;;;11.95;54.83789;102366.3;;;;-68
2023/06/02 03:46:17;;;;;;;;;;;;;;;11.93;54.95801;102370.7;;;;-70
2023/06/02 03:51:17;;;;;;;;;;;;;;;11.91;54.69824;102373.2;;;;-69
2023/06/02 03:56:17;;;;;;;;;;;;;;;11.92;54.86816;102372.3;;;;-70
2023/06/02 04:00:43;;;;;;;0.2;0.1;;;;;;;;;;;;;-69
2023/06/02 04:01:20;;;;;;;;;;;;;;;11.9;54.70801;102367.3;;;;-70
2023/06/02 04:06:17;;;;;;;;;;;;;;;11.91;54.74316;102370.2;;;;-70
2023/06/02 04:11:17;;;;;;;;;;;;;;;11.92;54.85742;102371.3;;;;-69
2023/06/02 04:16:17;;;;;;;;;;;;;;;11.93;55.00195;102373.8;;;;-70
2023/06/02 04:21:17;;;;;;;;;;;;;;;11.93;54.82422;102379.7;;;;-69
2023/06/02 04:26:17;;;;;;;;;;;;;;;11.95;54.9375;102380.6;;;;-70
2023/06/02 04:30:44;;;;;;;0.2;0.1;;;;;;;;;;;;;-70
2023/06/02 04:31:26;;;;;;;;;;;;;;;11.95;54.88281;102381.5;;;;-70
2023/06/02 04:36:17;;;;;;;;;;;;;;;11.97;54.84082;102379.8;;;;-70
2023/06/02 04:41:18;;;;;;;;;;;;;;;12;54.92188;102379.8;;;;-69
2023/06/02 04:46:17;;;;;;;;;;;;;;;12.01;54.67676;102379.9;;;;-69
2023/06/02 04:51:17;;;;;;;;;;;;;;;12.03;54.72461;102380.3;;;;-70
2023/06/02 04:56:17;;;;;;;;;;;;;;;12.06;54.75;102378.3;;;;-69
2023/06/02 05:00:45;;;;;;;0.2;0.1;;;;;;;;;;;;;-69
2023/06/02 05:01:17;;;;;;;;;;;;;;;12.09;54.67773;102379.7;;;;-68
2023/06/02 05:06:17;;;;;;;;;;;;;;;12.14;54.66016;102381.9;;;;-68
2023/06/02 05:11:17;;;;;;;;;;;;;;;12.19;54.70117;102383.5;;;;-69
2023/06/02 05:16:17;;;;;;;;;;;;;;;12.23;54.6709;102385.5;;;;-69
2023/06/02 05:21:20;;;;;;;;;;;;;;;12.31;54.61426;102382.2;;;;-70
2023/06/02 05:26:20;;;;;;;;;;;;;;;12.37;54.59961;102379.1;;;;-69
2023/06/02 05:30:46;;;;;;;0.3;0.2;;;;;;;;;;;;;-67
2023/06/02 05:31:17;;;;;;;;;;;;;;;12.49;54.54688;102375.3;;;;-70
2023/06/02 05:36:17;;;;;;;;;;;;;;;12.6;54.39258;102371.1;;;;-69
2023/06/02 05:41:17;;;;;;;;;;;;;;;12.69;54.4834;102373;;;;-70
2023/06/02 05:46:20;;;;;;;;;;;;;;;12.8;54.33887;102378.1;;;;-69
2023/06/02 05:51:17;;;;;;;;;;;;;;;12.9;54.53125;102374.3;;;;-68
2023/06/02 05:56:17;;;;;;;;;;;;;;;12.97;54.43848;102381.3;;;;-71
2023/06/02 06:00:48;;;;;;;0.2;0.1;;;;;;;;;;;;;-70
2023/06/02 06:01:17;;;;;;;;;;;;;;;13.05;54.53809;102373.9;;;;-70
2023/06/02 06:06:17;;;;;;;;;;;;;;;13.08;54.32813;102374;;;;-68
2023/06/02 06:11:17;;;;;;;;;;;;;;;13.18;54.31934;102376.2;;;;-69
2023/06/02 06:16:17;;;;;;;;;;;;;;;13.27;54.30664;102381.8;;;;-69
2023/06/02 06:21:17;;;;;;;;;;;;;;;13.36;54.11621;102381.1;;;;-68
2023/06/02 06:26:19;;;;;;;;;;;;;;;13.47;54.15332;102389.1;;;;-70
2023/06/02 06:30:50;;;;;;;0.2;0.1;;;;;;;;;;;;;-70
2023/06/02 06:31:19;;;;;;;;;;;;;;;13.58;54.26758;102390.8;;;;-70
2023/06/02 06:36:22;;;;;;;;;;;;;;;13.7;54.10254;102386;;;;-69
2023/06/02 06:41:17;;;;;;;;;;;;;;;13.76;53.97559;102387.4;;;;-73
2023/06/02 06:46:18;;;;;;;;;;;;;;;13.84;54.09668;102383.2;;;;-70
2023/06/02 06:51:17;;;;;;;;;;;;;;;13.89;54.0459;102382.1;;;;-69
2023/06/02 06:56:17;;;;;;;;;;;;;;;13.96;54.1123;102388;;;;-70
2023/06/02 07:00:51;;;;;;;0.2;0.1;;;;;;;;;;;;;-69
2023/06/02 07:01:17;;;;;;;;;;;;;;;13.99;54.28418;102390.5;;;;-70
2023/06/02 07:06:17;;;;;;;;;;;;;;;14.02;54.50195;102394;;;;-69
2023/06/02 07:11:17;;;;;;;;;;;;;;;14.05;54.53906;102392.3;;;;-69
2023/06/02 07:16:17;;;;;;;;;;;;;;;14.07;54.49707;102399;;;;-70
2023/06/02 07:21:18;;;;;;;;;;;;;;;14.09;54.95996;102404.4;;;;-68
2023/06/02 07:26:18;;;;;;;;;;;;;;;14.11;54.90625;102408.4;;;;-69
2023/06/02 07:30:53;;;;;;;0.2;0.1;;;;;;;;;;;;;-69
2023/06/02 07:31:18;;;;;;;;;;;;;;;14.13;55.25684;102409.5;;;;-69
2023/06/02 07:36:19;;;;;;;;;;;;;;;14.16;54.96973;102404.8;;;;-69
2023/06/02 07:41:17;;;;;;;;;;;;;;;14.22;54.9873;102407.6;;;;-70
2023/06/02 07:46:17;;;;;;;;;;;;;;;14.27;55.12891;102400.8;;;;-69
2023/06/02 07:51:17;;;;;;;;;;;;;;;14.32;55.25879;102404.7;;;;-70
2023/06/02 07:56:17;;;;;;;;;;;;;;;14.36;55.47754;102412.2;;;;-70
2023/06/02 08:00:54;;;;;;;0.3;0.2;;;;;;;;;;;;;-70
2023/06/02 08:01:18;;;;;;;;;;;;;;;14.4;55.48145;102401.5;;;;-70
2023/06/02 08:06:17;;;;;;;;;;;;;;;14.48;55.19922;102411.3;;;;-69
2023/06/02 08:11:17;;;;;;;;;;;;;;;14.57;55.21094;102411;;;;-68
2023/06/02 08:16:17;;;;;;;;;;;;;;;14.62;55.18359;102408.3;;;;-69
2023/06/02 08:21:17;;;;;;;;;;;;;;;14.68;55.10059;102409.2;;;;-68
2023/06/02 08:26:18;;;;;;;;;;;;;;;14.75;54.97461;102410.3;;;;-69
2023/06/02 08:30:58;;;;;;;0.2;0.1;;;;;;;;;;;;;-70
2023/06/02 08:31:20;;;;;;;;;;;;;;;14.86;54.83203;102407.1;;;;-70
2023/06/02 08:36:19;;;;;;;;;;;;;;;14.92;54.78223;102411.7;;;;-68
2023/06/02 08:41:18;;;;;;;;;;;;;;;14.97;54.8457;102416;;;;-69
2023/06/02 08:46:19;;;;;;;;;;;;;;;14.99;55.06152;102411.4;;;;-70
2023/06/02 08:51:19;;;;;;;;;;;;;;;15.02;55.01855;102406.2;;;;-68
2023/06/02 08:56:18;;;;;;;;;;;;;;;15.08;55.02832;102401;;;;-70
2023/06/02 09:00:58;;;;;;;0.2;0;;;;;;;;;;;;;-69
2023/06/02 09:01:17;;;;;;;;;;;;;;;15.17;54.79004;102408.9;;;;-69
2023/06/02 09:06:28;;;;;;;;;;;;;;;15.25;54.69922;102409.3;;;;-70
2023/06/02 09:11:23;;;;;;;;;;;;;;;15.29;54.91797;102409.5;;;;-70
2023/06/02 09:16:20;;;;;;;;;;;;;;;15.36;54.79102;102409.4;;;;-69
2023/06/02 09:21:28;;;;;;;;;;;;;;;15.53;54.66699;102413.9;;;;-69
2023/06/02 09:26:25;;;;;;;;;;;;;;;15.94;53.72363;102410.4;;;;-69
2023/06/02 09:31:09;;;;;;;0.2;0.1;;;;;;;;;;;;;-77
2023/06/02 09:31:20;;;;;;;;;;;;;;;16.24;53.28613;102410.7;;;;-74
2023/06/02 09:36:39;;;;;;;;;;;;;;;16.44;52.86914;102415.4;;;;-77
2023/06/02 09:41:28;;;;;;;;;;;;;;;16.58;52.44434;102414;;;;-76
2023/06/02 09:51:37;;;;;;;;;;;;;;;16.94;52.11328;102411;;;;-76
2023/06/02 09:56:18;;;;;;;;;;;;;;;17.05;52.29688;102411.8;;;;-76
2023/06/02 10:01:02;;;;;;;0.2;0.1;;;;;;;;;;;;;-76
2023/06/02 10:01:22;;;;;;;;;;;;;;;17.06;52.45605;102410.5;;;;-75
2023/06/02 10:06:25;;;;;;;;;;;;;;;17.13;52.50977;102417;;;;-76
2023/06/02 10:16:25;;;;;;;;;;;;;;;17.5;52.15625;102407.4;;;;-76
2023/06/02 10:21:23;;;;;;;;;;;;;;;17.59;51.52051;102402.8;;;;-70
2023/06/02 10:26:31;;;;;;;;;;;;;;;17.68;51.57715;102402.3;;;;-70
2023/06/02 10:31:15;;;;;;;0.2;0;;;;;;;;;;;;;-70
2023/06/02 10:31:31;;;;;;;;;;;;;;;17.78;51.46387;102398.6;;;;-69
2023/06/02 10:36:21;;;;;;;;;;;;;;;17.95;51.06348;102399.9;;;;-69
2023/06/02 10:41:21;;;;;;;;;;;;;;;18.01;51.05859;102408.6;;;;-70
2023/06/02 10:46:24;;;;;;;;;;;;;;;18;51.26172;102403.1;;;;-70
2023/06/02 10:51:17;;;;;;;;;;;;;;;18.03;51.16406;102397.5;;;;-68
2023/06/02 10:56:28;;;;;;;;;;;;;;;18.16;51.08789;102399.6;;;;-68
2023/06/02 11:01:07;;;;;;;0.6;0.1;;;;;;;;;;;;;-70
2023/06/02 11:01:28;;;;;;;;;;;;;;;18.27;50.81641;102398.7;;;;-70
2023/06/02 11:06:27;;;;;;;;;;;;;;;18.34;50.9043;102399.9;;;;-70
2023/06/02 11:11:27;;;;;;;;;;;;;;;18.47;50.73633;102403;;;;-70
2023/06/02 11:16:22;;;;;;;;;;;;;;;18.57;50.80566;102407.3;;;;-70
2023/06/02 11:21:25;;;;;;;;;;;;;;;18.58;50.68164;102405.3;;;;-69
2023/06/02 11:26:19;;;;;;;;;;;;;;;18.67;50.63574;102400.4;;;;-71
2023/06/02 11:31:13;;;;;;;0.2;0;;;;;;;;;;;;;-70
2023/06/02 11:31:23;;;;;;;;;;;;;;;18.79;50.70508;102401.1;;;;-70
2023/06/02 11:36:26;;;;;;;;;;;;;;;19.14;49.9834;102398.8;;;;-70
2023/06/02 11:41:18;;;;;;;;;;;;;;;19.44;49.73145;102398.6;;;;-70
2023/06/02 11:46:18;;;;;;;;;;;;;;;19.63;49.14844;102398.1;;;;-69
2023/06/02 11:51:17;;;;;;;;;;;;;;;19.67;48.99316;102386.4;;;;-69
2023/06/02 11:56:18;;;;;;;;;;;;;;;20.02;48.80371;102381.3;;;;-70
2023/06/02 12:01:14;;;;;;;0.3;0.1;;;;;;;;;;;;;-70
2023/06/02 12:01:25;;;;;;;;;;;;;;;20.62;49.49805;102366.7;;;;-71
2023/06/02 12:06:18;;;;;;;;;;;;;;;21.2;48.25781;102358.6;;;;-69
2023/06/02 12:11:26;;;;;;;;;;;;;;;21.82;48.59961;102364.1;;;;-70
2023/06/02 12:16:26;;;;;;;;;;;;;;;22.19;48.39941;102364.2;;;;-69
2023/06/02 12:21:29;;;;;;;;;;;;;;;22.32;48.43555;102356.1;;;;-69
2023/06/02 12:26:17;;;;;;;;;;;;;;;22.78;48.66992;102359.2;;;;-70
2023/06/02 12:31:18;;;;;;;0.3;0.1;;;;;;;;;;;;;-68
2023/06/02 12:31:28;;;;;;;;;;;;;;;22.95;48.61914;102353;;;;-71
2023/06/02 12:36:17;;;;;;;;;;;;;;;23.21;48.64844;102352;;;;-70
2023/06/02 12:41:17;;;;;;;;;;;;;;;23.68;47.84668;102351.9;;;;-70
2023/06/02 12:46:17;;;;;;;;;;;;;;;24.03;47.67676;102355;;;;-69
2023/06/02 12:51:17;;;;;;;;;;;;;;;24.52;47.76367;102347.1;;;;-69
2023/06/02 12:56:17;;;;;;;;;;;;;;;24.7;47.0332;102343.6;;;;-69
2023/06/02 13:01:21;;;;;;;;;;;;;;;24.78;46.09473;102350.2;;;;-70
2023/06/02 13:01:30;;;;;;;0.2;0.1;;;;;;;;;;;;;-70
2023/06/02 13:06:17;;;;;;;;;;;;;;;24.78;46.14063;102344.4;;;;-70
2023/06/02 13:11:17;;;;;;;;;;;;;;;24.8;45.41504;102350.7;;;;-69
2023/06/02 13:16:17;;;;;;;;;;;;;;;24.81;44.89648;102341.8;;;;-70
2023/06/02 13:21:17;;;;;;;;;;;;;;;25.13;45.17188;102338;;;;-69
2023/06/02 13:26:17;;;;;;;;;;;;;;;25.22;44.86914;102332.7;;;;-70
2023/06/02 13:31:18;;;;;;;;;;;;;;;25.64;44.7373;102335;;;;-71
2023/06/02 13:31:33;;;;;;;0.2;0;;;;;;;;;;;;;-71
2023/06/02 13:36:18;;;;;;;;;;;;;;;25.6;43.98145;102335.3;;;;-68
2023/06/02 13:41:17;;;;;;;;;;;;;;;25.53;43.47559;102332.5;;;;-69
2023/06/02 13:46:17;;;;;;;;;;;;;;;25.68;43.64063;102341.1;;;;-70
2023/06/02 13:51:18;;;;;;;;;;;;;;;25.6;44.4082;102343.5;;;;-70
2023/06/02 13:56:17;;;;;;;;;;;;;;;25.24;44.29199;102340.4;;;;-69
2023/06/02 14:01:20;;;;;;;;;;;;;;;24.87;44.61426;102336.2;;;;-70
2023/06/02 14:01:32;;;;;;;1.9;0.3;;;;;;;;;;;;;-70
2023/06/02 14:06:17;;;;;;;;;;;;;;;24.92;44.2832;102343.1;;;;-71
2023/06/02 14:11:17;;;;;;;;;;;;;;;24.85;43.96582;102337.3;;;;-71
2023/06/02 14:16:17;;;;;;;;;;;;;;;25.26;43.19434;102339.4;;;;-70
2023/06/02 14:21:20;;;;;;;;;;;;;;;25.4;43.19727;102341.8;;;;-71
2023/06/02 14:26:17;;;;;;;;;;;;;;;25.54;42.49219;102347.7;;;;-69
2023/06/02 14:31:18;;;;;;;;;;;;;;;25.43;43.69824;102336.8;;;;-71
2023/06/02 14:31:37;;;;;;;0.2;0;;;;;;;;;;;;;-69
2023/06/02 14:36:17;;;;;;;;;;;;;;;25.65;42.73535;102332.7;;;;-69
2023/06/02 14:41:17;;;;;;;;;;;;;;;25.89;42.24805;102329;;;;-70
2023/06/02 14:46:22;;;;;;;;;;;;;;;25.99;39.8457;102330.5;;;;-70
2023/06/02 14:51:18;;;;;;;;;;;;;;;26.09;40.67773;102330.9;;;;-72
2023/06/02 14:56:17;;;;;;;;;;;;;;;26.15;40.50977;102322.3;;;;-69
2023/06/02 15:01:19;;;;;;;;;;;;;;;26.28;41.62305;102321.8;;;;-71
2023/06/02 15:01:36;;;;;;;0.2;0;;;;;;;;;;;;;-71
2023/06/02 15:06:18;;;;;;;;;;;;;;;26.33;40.45605;102310.2;;;;-71
2023/06/02 15:11:18;;;;;;;;;;;;;;;26.46;39.81738;102309.6;;;;-69
2023/06/02 15:16:17;;;;;;;;;;;;;;;26.48;40.21484;102311.2;;;;-68
2023/06/02 15:21:17;;;;;;;;;;;;;;;26.52;39.99805;102304.6;;;;-69
2023/06/02 15:26:17;;;;;;;;;;;;;;;26.45;38.94629;102305.7;;;;-70
2023/06/02 15:31:17;;;;;;;;;;;;;;;26.43;39.80273;102303.4;;;;-69
2023/06/02 15:31:40;;;;;;;0.2;0;;;;;;;;;;;;;-72
2023/06/02 15:36:17;;;;;;;;;;;;;;;26.38;37.7207;102300.5;;;;-71
2023/06/02 15:41:17;;;;;;;;;;;;;;;26.33;38.99316;102299.6;;;;-71
2023/06/02 15:46:17;;;;;;;;;;;;;;;26.23;38.76465;102291.7;;;;-71
2023/06/02 15:51:17;;;;;;;;;;;;;;;26.15;39.88379;102294.4;;;;-71
2023/06/02 15:56:17;;;;;;;;;;;;;;;25.99;40.1709;102289.4;;;;-72
2023/06/02 16:01:20;;;;;;;;;;;;;;;25.92;39.44531;102283;;;;-71
2023/06/02 16:01:44;;;;;;;0.2;0;;;;;;;;;;;;;-71
2023/06/02 16:06:20;;;;;;;;;;;;;;;25.89;39.60547;102285.6;;;;-69
2023/06/02 16:11:17;;;;;;;;;;;;;;;25.75;40.04492;102275.9;;;;-70
2023/06/02 16:16:17;;;;;;;;;;;;;;;25.59;40.48242;102273.5;;;;-71
2023/06/02 16:21:17;;;;;;;;;;;;;;;25.44;40.13281;102275.5;;;;-69
2023/06/02 16:26:20;;;;;;;;;;;;;;;25.27;40.15234;102275.5;;;;-71
2023/06/02 16:31:19;;;;;;;;;;;;;;;25.09;40.63379;102273.7;;;;-69
2023/06/02 16:31:48;;;;;;;0.2;0;;;;;;;;;;;;;-69
2023/06/02 16:36:24;;;;;;;;;;;;;;;24.93;40.73535;102271.5;;;;-70
2023/06/02 16:41:17;;;;;;;;;;;;;;;24.8;41.1748;102273.7;;;;-71
2023/06/02 16:46:20;;;;;;;;;;;;;;;24.65;41.48438;102267.5;;;;-69
2023/06/02 16:51:17;;;;;;;;;;;;;;;24.56;41.58008;102263.9;;;;-70
2023/06/02 16:56:18;;;;;;;;;;;;;;;24.35;42.42676;102263.1;;;;-70
2023/06/02 17:01:17;;;;;;;;;;;;;;;24.23;42.85449;102266.6;;;;-71
2023/06/02 17:01:55;;;;;;;0.2;0;;;;;;;;;;;;;-69
2023/06/02 17:06:24;;;;;;;;;;;;;;;24.07;43.3584;102263.3;;;;-72
2023/06/02 17:11:21;;;;;;;;;;;;;;;23.92;43.6543;102264.7;;;;-72
2023/06/02 17:16:18;;;;;;;;;;;;;;;23.77;43.45605;102269;;;;-72
2023/06/02 17:21:20;;;;;;;;;;;;;;;23.56;43.42383;102274.1;;;;-71
2023/06/02 17:26:17;;;;;;;;;;;;;;;23.37;43.7627;102281.9;;;;-74
2023/06/02 17:31:17;;;;;;;;;;;;;;;23.15;44.11035;102278.8;;;;-72
2023/06/02 17:31:58;;;;;;;0.2;0;;;;;;;;;;;;;-72
2023/06/02 17:36:17;;;;;;;;;;;;;;;23.01;44.49902;102287.1;;;;-71
2023/06/02 17:41:22;;;;;;;;;;;;;;;21.84;46.60742;102289;;;;-77
2023/06/02 17:46:17;;;;;;;;;;;;;;;22;46.78516;102291.5;;;;-70
2023/06/02 17:51:17;;;;;;;;;;;;;;;22.17;46.27441;102292.1;;;;-72
2023/06/02 17:56:17;;;;;;;;;;;;;;;22.13;46.4541;102299.9;;;;-71
2023/06/02 18:01:17;;;;;;;;;;;;;;;22.06;46.17188;102294.8;;;;-78
2023/06/02 18:02:02;;;;;;;0.2;0;;;;;;;;;;;;;-81
2023/06/02 18:06:23;;;;;;;;;;;;;;;21.97;46.43652;102290.4;;;;-74
2023/06/02 18:11:17;;;;;;;;;;;;;;;20.04;52.37598;102291.4;;;;-74
2023/06/02 18:16:20;;;;;;;;;;;;;;;19.62;54.87695;102298.8;;;;-76
2023/06/02 18:21:17;;;;;;;;;;;;;;;20.66;50.73535;102297.7;;;;-70
2023/06/02 18:26:17;;;;;;;;;;;;;;;20.98;49.83398;102299.7;;;;-75
2023/06/02 18:31:17;;;;;;;;;;;;;;;20.92;49.43945;102299.7;;;;-70
2023/06/02 18:32:08;;;;;;;0.9;0.5;;;;;;;;;;;;;-70
2023/06/02 18:36:21;;;;;;;;;;;;;;;20.79;49.20801;102297.6;;;;-70
2023/06/02 18:41:17;;;;;;;;;;;;;;;20.71;49.61035;102291.5;;;;-72
2023/06/02 18:46:18;;;;;;;;;;;;;;;20.64;49.48926;102291.7;;;;-71
2023/06/02 18:51:17;;;;;;;;;;;;;;;20.46;49.53711;102297.4;;;;-72
2023/06/02 18:56:17;;;;;;;;;;;;;;;20.24;50.10742;102293.7;;;;-69
2023/06/02 19:01:19;;;;;;;;;;;;;;;19.97;50.10938;102287;;;;-70
2023/06/02 19:02:09;;;;;;;0.2;0.1;;;;;;;;;;;;;-70
2023/06/02 19:06:17;;;;;;;;;;;;;;;19.77;50.7041;102290.8;;;;-70
2023/06/02 19:11:17;;;;;;;;;;;;;;;19.59;50.75098;102294.2;;;;-70
2023/06/02 19:16:17;;;;;;;;;;;;;;;19.41;49.9668;102288.8;;;;-70
2023/06/02 19:21:18;;;;;;;;;;;;;;;19.22;50.28809;102288.2;;;;-70
2023/06/02 19:26:20;;;;;;;;;;;;;;;19.05;50.01855;102295.5;;;;-70
2023/06/02 19:31:17;;;;;;;;;;;;;;;18.88;50.16992;102296;;;;-70
2023/06/02 19:32:11;;;;;;;0.2;0.1;;;;;;;;;;;;;-70
2023/06/02 19:36:18;;;;;;;;;;;;;;;18.69;50.36426;102292.4;;;;-68
2023/06/02 19:41:20;;;;;;;;;;;;;;;18.48;49.9541;102300.9;;;;-70
2023/06/02 19:46:17;;;;;;;;;;;;;;;18.27;50.94141;102303.9;;;;-69
2023/06/02 19:51:17;;;;;;;;;;;;;;;18.07;50.29395;102311;;;;-70
2023/06/02 19:56:17;;;;;;;;;;;;;;;17.92;50.74219;102312.5;;;;-69
2023/06/02 20:01:17;;;;;;;;;;;;;;;17.73;51.24219;102320.8;;;;-70
2023/06/02 20:02:13;;;;;;;0.3;0.1;;;;;;;;;;;;;-69
2023/06/02 20:06:19;;;;;;;;;;;;;;;17.54;51.50293;102323.2;;;;-70
2023/06/02 20:11:17;;;;;;;;;;;;;;;17.37;51.25781;102326.6;;;;-70
2023/06/02 20:16:17;;;;;;;;;;;;;;;17.22;51.93164;102332.1;;;;-69
2023/06/02 20:21:17;;;;;;;;;;;;;;;17.04;52.49805;102334.6;;;;-69
2023/06/02 20:26:17;;;;;;;;;;;;;;;16.87;52.40039;102337.5;;;;-69
2023/06/02 20:31:17;;;;;;;;;;;;;;;16.72;52.52832;102337.3;;;;-71
2023/06/02 20:32:16;;;;;;;0.2;0.1;;;;;;;;;;;;;-70
2023/06/02 20:36:19;;;;;;;;;;;;;;;16.59;52.7959;102342.3;;;;-71
2023/06/02 20:41:18;;;;;;;;;;;;;;;16.43;53.34277;102341.6;;;;-70
2023/06/02 20:46:17;;;;;;;;;;;;;;;16.32;53.3291;102339.6;;;;-69
2023/06/02 20:51:20;;;;;;;;;;;;;;;16.2;53.59766;102337.6;;;;-70
2023/06/02 20:56:17;;;;;;;;;;;;;;;16.04;54.16504;102335.6;;;;-69
2023/06/02 21:01:17;;;;;;;;;;;;;;;15.93;54.34375;102339.5;;;;-70
2023/06/02 21:02:23;;;;;;;0.2;0.1;;;;;;;;;;;;;-70
2023/06/02 21:06:20;;;;;;;;;;;;;;;15.83;54.64746;102345.6;;;;-69
2023/06/02 21:11:17;;;;;;;;;;;;;;;15.72;54.83594;102341.9;;;;-71
2023/06/02 21:16:18;;;;;;;;;;;;;;;15.61;55.47656;102336;;;;-70
2023/06/02 21:21:17;;;;;;;;;;;;;;;15.5;55.2041;102328.9;;;;-70
2023/06/02 21:26:17;;;;;;;;;;;;;;;15.39;55.50488;102331.5;;;;-69
2023/06/02 21:31:17;;;;;;;;;;;;;;;15.31;55.42676;102340.8;;;;-72
2023/06/02 21:32:21;;;;;;;0.2;0.1;;;;;;;;;;;;;-69
2023/06/02 21:36:18;;;;;;;;;;;;;;;15.22;55.7998;102340.6;;;;-70
2023/06/02 21:41:17;;;;;;;;;;;;;;;15.12;56.2041;102340.4;;;;-70
2023/06/02 21:46:17;;;;;;;;;;;;;;;15.04;56.38477;102344.1;;;;-69
2023/06/02 21:51:19;;;;;;;;;;;;;;;14.96;56.58789;102346.7;;;;-70
2023/06/02 21:56:17;;;;;;;;;;;;;;;14.88;56.72363;102345.9;;;;-70
2023/06/02 22:01:17;;;;;;;;;;;;;;;14.82;56.43457;102349.7;;;;-69
2023/06/02 22:02:32;;;;;;;0.2;0.1;;;;;;;;;;;;;-69
2023/06/02 22:06:17;;;;;;;;;;;;;;;14.69;56.50977;102350.1;;;;-71
2023/06/02 22:11:19;;;;;;;;;;;;;;;14.62;57.23145;102344;;;;-69
2023/06/02 22:16:17;;;;;;;;;;;;;;;14.56;56.99805;102343.4;;;;-70
2023/06/02 22:21:17;;;;;;;;;;;;;;;14.47;57.37988;102343.8;;;;-69
2023/06/02 22:26:17;;;;;;;;;;;;;;;14.4;57.08887;102344.7;;;;-69
2023/06/02 22:31:17;;;;;;;;;;;;;;;14.33;57.03711;102350.5;;;;-69
2023/06/02 22:32:25;;;;;;;0.2;0;;;;;;;;;;;;;-70
2023/06/02 22:36:17;;;;;;;;;;;;;;;14.26;56.8125;102358.6;;;;-69
2023/06/02 22:41:17;;;;;;;;;;;;;;;14.2;57.26563;102363.7;;;;-72
2023/06/02 22:46:17;;;;;;;;;;;;;;;14.13;56.9873;102363.4;;;;-70
2023/06/02 22:51:17;;;;;;;;;;;;;;;14.04;57.30273;102365.4;;;;-68
2023/06/02 22:56:17;;;;;;;;;;;;;;;13.98;57.21582;102364.4;;;;-71
2023/06/02 23:01:18;;;;;;;;;;;;;;;13.93;57.39941;102370;;;;-68
2023/06/02 23:02:30;;;;;;;0.3;0.1;;;;;;;;;;;;;-69
2023/06/02 23:06:17;;;;;;;;;;;;;;;13.86;57.32324;102366.7;;;;-69
2023/06/02 23:11:18;;;;;;;;;;;;;;;13.82;57.62109;102365.8;;;;-71
2023/06/02 23:16:23;;;;;;;;;;;;;;;13.76;57.0625;102361.2;;;;-69
2023/06/02 23:21:18;;;;;;;;;;;;;;;13.7;57.19043;102354.2;;;;-69
2023/06/02 23:26:17;;;;;;;;;;;;;;;13.64;57.2041;102360.6;;;;-70
2023/06/02 23:31:21;;;;;;;;;;;;;;;13.56;57.3291;102362.2;;;;-70
2023/06/02 23:32:33;;;;;;;0.2;0.1;;;;;;;;;;;;;-69
2023/06/02 23:36:19;;;;;;;;;;;;;;;13.53;57.48047;102357;;;;-71
2023/06/02 23:41:17;;;;;;;;;;;;;;;13.53;57.43555;102356.7;;;;-70
2023/06/02 23:46:20;;;;;;;;;;;;;;;13.43;57.92969;102361.1;;;;-70
2023/06/02 23:51:17;;;;;;;;;;;;;;;13.4;57.4873;102362.6;;;;-68
2023/06/02 23:56:20;;;;;;;;;;;;;;;13.35;57.29102;102363.7;;;;-69
